createdAt,value
2022-12-09T00:00:47.753Z,79.58
2022-12-09T00:06:29.070Z,80.07
2022-12-09T00:11:31.293Z,79.23
2022-12-09T00:16:33.749Z,79.21
2022-12-09T00:21:36.256Z,79.52
2022-12-09T00:26:38.930Z,79.82
2022-12-09T00:31:41.237Z,79.71
2022-12-09T00:36:43.573Z,79.79
2022-12-09T00:41:46.581Z,79.83
2022-12-09T00:46:48.977Z,79.65
2022-12-09T00:51:51.418Z,79.93
2022-12-09T00:56:53.655Z,79.89
2022-12-09T01:01:55.783Z,80.03
2022-12-09T01:06:58.124Z,80.11
2022-12-09T01:12:04.182Z,80.08
2022-12-09T01:17:06.361Z,80.21
2022-12-09T01:22:08.590Z,79.94
2022-12-09T01:27:11.058Z,80.20
2022-12-09T01:32:13.617Z,80.04
2022-12-09T01:37:16.225Z,79.95
2022-12-09T01:42:24.032Z,80.22
2022-12-09T01:47:26.452Z,80.29
2022-12-09T01:52:28.708Z,80.31
2022-12-09T01:57:31.773Z,80.16
2022-12-09T02:02:36.904Z,80.31
2022-12-09T02:07:39.653Z,80.04
2022-12-09T02:13:05.178Z,80.46
2022-12-09T02:18:51.859Z,80.62
2022-12-09T02:24:01.888Z,80.38
2022-12-09T02:29:40.777Z,80.61
2022-12-09T02:34:59.169Z,80.25
2022-12-09T02:40:14.275Z,80.27
2022-12-09T02:45:18.537Z,80.10
2022-12-09T02:50:29.097Z,80.05
2022-12-09T02:55:33.112Z,79.87
2022-12-09T03:00:35.835Z,80.03
2022-12-09T03:06:02.430Z,80.45
2022-12-09T03:11:09.896Z,80.13
2022-12-09T03:16:15.254Z,79.84
2022-12-09T03:21:20.547Z,79.73
2022-12-09T03:26:23.653Z,79.94
2022-12-09T03:31:29.577Z,79.82
2022-12-09T03:36:37.992Z,79.82
2022-12-09T03:41:45.857Z,80.07
2022-12-09T03:46:48.364Z,79.63
2022-12-09T03:51:57.985Z,79.87
2022-12-09T03:57:01.297Z,79.79
2022-12-09T04:02:07.581Z,79.73
2022-12-09T04:07:11.021Z,79.76
2022-12-09T04:12:16.910Z,79.75
2022-12-09T04:17:19.605Z,79.65
2022-12-09T04:22:21.955Z,79.70
2022-12-09T04:27:24.536Z,79.50
2022-12-09T04:32:26.869Z,79.77
2022-12-09T04:37:29.505Z,79.64
2022-12-09T04:42:32.004Z,79.52
2022-12-09T04:47:35.122Z,79.65
2022-12-09T04:52:37.493Z,79.52
2022-12-09T04:57:40.040Z,79.61
2022-12-09T05:02:42.374Z,79.57
2022-12-09T05:07:45.077Z,79.55
2022-12-09T05:12:47.506Z,79.42
2022-12-09T05:17:50.001Z,79.46
2022-12-09T05:22:52.576Z,79.77
2022-12-09T05:27:55.151Z,79.65
2022-12-09T05:32:57.608Z,79.55
2022-12-09T05:38:00.039Z,79.51
2022-12-09T05:43:04.577Z,79.67
2022-12-09T05:48:07.499Z,79.75
2022-12-09T05:53:10.051Z,79.65
2022-12-09T05:58:12.237Z,79.86
2022-12-09T06:03:15.485Z,80.03
2022-12-09T06:08:18.892Z,79.98
2022-12-09T06:13:21.166Z,80.08
2022-12-09T06:18:23.714Z,80.14
2022-12-09T06:23:26.984Z,80.34
2022-12-09T06:28:29.596Z,80.41
2022-12-09T06:38:54.764Z,80.40
2022-12-09T06:43:58.378Z,80.45
2022-12-09T06:49:00.985Z,80.60
2022-12-09T06:54:05.193Z,80.63
2022-12-09T06:59:09.352Z,80.72
2022-12-09T07:04:13.965Z,80.55
2022-12-09T07:09:19.947Z,80.85
2022-12-09T07:14:22.295Z,80.98
2022-12-09T07:19:24.794Z,80.85
2022-12-09T07:24:27.248Z,80.96
2022-12-09T07:29:33.636Z,81.09
2022-12-09T07:34:36.604Z,81.21
2022-12-09T07:39:38.860Z,80.82
2022-12-09T07:44:41.268Z,80.98
2022-12-09T07:49:43.826Z,81.17
2022-12-09T07:54:46.006Z,81.28
2022-12-09T07:59:48.746Z,81.33
2022-12-09T08:04:51.349Z,81.51
2022-12-09T08:09:57.247Z,81.61
2022-12-09T08:14:59.652Z,81.59
2022-12-09T08:20:02.412Z,81.66
2022-12-09T08:25:06.361Z,81.53
2022-12-09T08:30:10.013Z,81.74
2022-12-09T08:35:15.656Z,81.58
2022-12-09T08:40:19.174Z,81.73
2022-12-09T08:45:21.871Z,81.90
2022-12-09T08:50:24.416Z,81.70
2022-12-09T08:55:27.892Z,81.69
2022-12-09T09:00:30.594Z,81.70
2022-12-09T09:05:33.109Z,81.78
2022-12-09T09:10:37.426Z,81.82
2022-12-09T09:15:40.529Z,81.73
2022-12-09T09:20:52.546Z,81.93
2022-12-09T09:25:54.992Z,81.62
2022-12-09T09:31:06.309Z,81.51
2022-12-09T09:36:11.678Z,81.74
2022-12-09T09:41:26.307Z,81.79
2022-12-09T09:46:38.112Z,81.61
2022-12-09T09:51:40.773Z,81.44
2022-12-09T09:56:51.932Z,81.33
2022-12-09T10:02:19.951Z,81.78
2022-12-09T10:07:36.465Z,81.45
2022-12-09T10:13:05.057Z,81.10
2022-12-09T10:18:19.201Z,81.31
2022-12-09T10:23:22.492Z,80.77
2022-12-09T10:28:27.747Z,80.92
2022-12-09T10:33:34.355Z,80.51
2022-12-09T10:38:38.988Z,80.49
2022-12-09T10:43:43.202Z,80.39
2022-12-09T10:48:49.049Z,80.37
2022-12-09T10:53:53.256Z,80.40
2022-12-09T10:59:23.291Z,80.51
2022-12-09T11:04:28.295Z,80.18
2022-12-09T11:09:36.585Z,80.16
2022-12-09T11:14:51.104Z,80.08
2022-12-09T11:20:22.554Z,80.01
2022-12-09T11:25:31.950Z,79.86
2022-12-09T11:30:57.482Z,79.68
2022-12-09T11:41:16.386Z,79.64
2022-12-09T11:46:28.607Z,79.52
2022-12-09T11:51:33.367Z,79.41
2022-12-09T11:56:48.336Z,79.29
2022-12-09T12:02:05.267Z,79.15
2022-12-09T12:07:18.452Z,79.29
2022-12-09T12:12:29.451Z,79.07
2022-12-09T12:17:38.485Z,79.00
2022-12-09T12:23:06.444Z,79.01
2022-12-09T12:28:26.893Z,78.78
2022-12-09T12:34:07.723Z,78.85
2022-12-09T12:39:22.869Z,78.59
2022-12-09T12:44:58.270Z,78.63
2022-12-09T12:50:03.386Z,78.45
2022-12-09T12:55:23.769Z,78.56
2022-12-09T13:00:32.020Z,78.41
2022-12-09T13:05:43.958Z,78.54
2022-12-09T13:10:50.827Z,78.56
2022-12-09T13:15:55.543Z,78.50
2022-12-09T13:20:59.837Z,78.44
2022-12-09T13:26:17.172Z,78.20
2022-12-09T13:31:22.631Z,78.21
2022-12-09T13:36:37.947Z,78.04
2022-12-09T13:42:08.668Z,78.01
2022-12-09T13:47:35.241Z,77.63
2022-12-09T13:52:43.828Z,77.69
2022-12-09T13:58:18.222Z,77.63
2022-12-09T14:03:35.219Z,77.78
2022-12-09T14:08:41.884Z,77.63
2022-12-09T14:13:44.242Z,77.47
2022-12-09T14:18:46.421Z,77.79
2022-12-09T14:24:16.538Z,77.63
2022-12-09T14:29:55.920Z,77.53
2022-12-09T14:35:11.978Z,77.69
2022-12-09T14:40:14.150Z,77.74
2022-12-09T14:45:33.559Z,77.50
2022-12-09T14:50:38.818Z,77.49
2022-12-09T14:55:44.698Z,77.35
2022-12-09T15:01:03.685Z,77.65
2022-12-09T15:06:17.571Z,77.48
2022-12-09T15:11:23.770Z,77.47
2022-12-09T15:16:26.622Z,77.53
2022-12-09T15:21:31.866Z,77.42
2022-12-09T15:26:34.476Z,77.47
2022-12-09T15:31:47.636Z,77.43
2022-12-09T15:36:59.567Z,77.58
2022-12-09T15:42:13.651Z,77.52
2022-12-09T15:47:39.729Z,77.65
2022-12-09T15:53:00.564Z,77.53
2022-12-09T15:58:05.975Z,77.44
2022-12-09T16:03:08.922Z,77.42
2022-12-09T16:08:11.588Z,77.39
2022-12-09T16:13:18.394Z,77.49
2022-12-09T16:18:43.787Z,77.48
2022-12-09T16:23:48.700Z,77.23
2022-12-09T16:28:59.014Z,77.29
2022-12-09T16:34:01.192Z,77.42
2022-12-09T16:39:09.366Z,77.58
2022-12-09T16:44:22.150Z,77.50
2022-12-09T16:49:24.326Z,77.29
2022-12-09T16:54:37.643Z,77.28
2022-12-09T16:59:40.294Z,77.27
2022-12-09T17:04:42.604Z,77.50
2022-12-09T17:09:44.866Z,77.27
2022-12-09T17:14:47.113Z,77.10
2022-12-09T17:19:49.649Z,77.33
2022-12-09T17:24:51.867Z,77.63
2022-12-09T17:29:54.280Z,77.31
2022-12-09T17:34:56.473Z,77.03
2022-12-09T17:40:03.432Z,77.49
2022-12-09T17:45:07.467Z,77.42
2022-12-09T17:50:13.354Z,77.53
2022-12-09T17:55:18.919Z,77.28
2022-12-09T18:00:21.157Z,77.42
2022-12-09T18:05:23.328Z,77.42
2022-12-09T18:10:25.609Z,77.67
2022-12-09T18:15:27.808Z,77.56
2022-12-09T18:20:30.005Z,77.74
2022-12-09T18:25:32.133Z,77.56
2022-12-09T18:30:40.376Z,77.60
2022-12-09T18:35:42.927Z,77.78
2022-12-09T18:41:04.239Z,77.69
2022-12-09T18:46:09.298Z,77.77
2022-12-09T18:51:19.603Z,77.77
2022-12-09T18:56:21.835Z,77.79
2022-12-09T19:01:26.791Z,77.70
2022-12-09T19:06:35.672Z,77.82
2022-12-09T19:11:39.750Z,77.63
2022-12-09T19:16:44.936Z,77.49
2022-12-09T19:21:47.733Z,77.65
2022-12-09T19:26:53.314Z,77.61
2022-12-09T19:31:58.299Z,77.74
2022-12-09T19:37:01.570Z,77.67
2022-12-09T19:42:05.432Z,77.88
2022-12-09T19:47:08.867Z,77.84
2022-12-09T19:52:12.282Z,77.68
2022-12-09T19:57:14.648Z,77.87
2022-12-09T20:02:17.918Z,77.85
2022-12-09T20:07:23.552Z,77.73
2022-12-09T20:12:26.204Z,77.84
2022-12-09T20:17:28.478Z,77.69
2022-12-09T20:22:31.092Z,77.45
2022-12-09T20:27:37.267Z,77.59
2022-12-09T20:32:39.505Z,77.59
2022-12-09T20:37:44.149Z,77.62
2022-12-09T20:42:46.410Z,77.56
2022-12-09T20:47:48.702Z,77.84
2022-12-09T20:52:51.402Z,77.63
2022-12-09T20:57:56.056Z,77.83
2022-12-09T21:02:58.575Z,77.79
2022-12-09T21:08:00.755Z,77.81
2022-12-09T21:13:03.311Z,77.83
2022-12-09T21:18:05.615Z,77.82
2022-12-09T21:23:32.670Z,77.74
2022-12-09T21:28:30.328Z,77.77
2022-12-09T21:33:32.609Z,77.90
2022-12-09T21:38:36.477Z,77.87
2022-12-09T21:43:39.076Z,78.23
2022-12-09T21:48:41.471Z,77.95
2022-12-09T21:53:44.379Z,77.86
2022-12-09T21:58:48.108Z,78.02
2022-12-09T22:03:50.444Z,78.28
2022-12-09T22:08:52.863Z,78.03
2022-12-09T22:13:58.208Z,78.65
2022-12-09T22:19:01.787Z,78.59
2022-12-09T22:24:05.891Z,78.42
2022-12-09T22:29:08.246Z,78.45
2022-12-09T22:34:16.534Z,78.32
2022-12-09T22:39:21.985Z,78.17
2022-12-09T22:44:24.328Z,78.35
2022-12-09T22:49:26.594Z,78.56
2022-12-09T22:54:29.025Z,78.12
2022-12-09T22:59:31.418Z,78.70
2022-12-09T23:04:36.564Z,78.86
2022-12-09T23:09:38.848Z,79.04
2022-12-09T23:14:41.062Z,78.61
2022-12-09T23:19:43.343Z,78.85
2022-12-09T23:24:45.682Z,78.54
2022-12-09T23:29:48.000Z,78.83
2022-12-09T23:34:50.228Z,78.83
2022-12-09T23:39:52.477Z,79.19
2022-12-09T23:44:55.041Z,79.02
2022-12-09T23:49:57.809Z,78.89
2022-12-09T23:55:04.319Z,78.74
